Tiempo atmosférico en la estación meteorológica de Bielsa, Huesca (990 m.)



Fecha
DESCASC
Temp. máxima en grados centígrados (hora)
DESCASC
Temp. mínima en grados centígrados (hora)
DESCASC
Temp. media en grados centígrados
DESCASC
Racha de viento máxima en m/sg (hora)
DESCASC
Velocidad máxima media en intervalos de 10 minutos(hora)
DESCASC
Precipitaciones diarias en mm
DESCASC
Precipitaciones de 00:00 a 06:00 en mm
DESCASC
Precipitaciones de 06:00 a 12:00 en mm
DESCASC
Precipitaciones de 12:00 a 18:00 en mm
DESCASC
Precipitaciones de 18:00 a 24:00 en mm
DESCASC
17-09-2020 27.4 (13:50) 10.8 (07:40) 19.1 9.44 (14:40) 2.78 (14:30) 0 0 0 0 0
16-09-2020 29.9 (16:20) 10.9 (08:10) 20.4 8.61 (18:50) 3.89 (18:50) 0 0 0 0 0
15-09-2020 29 (15:20) 11.6 (03:10) 20.3 9.72 (17:20) 2.78 (18:20) 0.2 0 0 0 0.2
14-09-2020 30 (15:50) 9 (00:00) 19.5 8.61 (15:10) 2.5 (14:10) 0 0 0 0 0
13-09-2020 30.2 (15:40) 9.5 (00:00) 19.9 6.67 (12:50) 1.94 (13:40) 0 0 0 0 0
12-09-2020 30.2 (15:30) 9.6 (00:00) 19.9 7.78 (17:00) 2.5 (17:10) 0 0 0 0 0
11-09-2020 27.8 (15:50) 10.8 (00:00) 19.3 11.94 (13:30) 5 (13:00) 0 0 0 0 0
10-09-2020 23.8 (16:00) 13.4 (00:00) 18.6 10.28 (16:00) 3.61 (16:00) 0.2 0.2 0 0 0
09-09-2020 21.3 (17:00) 9.5 (00:00) 15.4 11.39 (13:20) 4.72 (13:10) 0 0 0 0 0
08-09-2020 26.8 (17:10) 5 (00:00) 15.9 9.17 (02:10) 3.89 (01:00) 0 0 0 0 0
07-09-2020 19.9 (15:20) 12 (06:40) 15.9 14.72 (16:40) 5.28 (13:10) 0 0 0 0 0
06-09-2020 25.5 (13:50) 11.1 (00:00) 18.3 13.06 (23:10) 4.44 (23:40) 0.2 0 0 0.2 0
05-09-2020 30.7 (15:40) 9.5 (00:00) 20.1 9.17 (20:20) 3.33 (20:10) 0 0 0 0 0
04-09-2020 29.7 (16:50) 9 (00:00) 19.4 8.89 (12:30) 3.33 (12:30) 0 0 0 0 0
03-09-2020 28.1 (16:30) 7.3 (00:00) 17.7 9.17 (13:20) 3.33 (14:20) 0 0 0 0 0
02-09-2020 26.1 (16:20) 8 (00:00) 17.1 9.17 (13:40) 3.89 (11:50) 0 0 0 0 0
01-09-2020 24.7 (15:10) 7.8 (00:00) 16.3 8.33 (13:00) 3.61 (22:40) 0 0 0 0 0
31-08-2020 23.8 (17:10) 4.6 (00:00) 14.2 8.33 (15:40) 3.33 (12:40) 0 0 0 0 0
30-08-2020 20.6 (14:40) 6.5 (00:00) 13.6 12.78 (16:30) 5.83 (16:20) 0 0 0 0 0
29-08-2020 18.9 (12:30) 10.9 (00:00) 14.9 13.33 (15:30) 5.28 (15:40) 0.8 0 0 0.6 0.2
28-08-2020 20.5 (17:40) 15.1 (00:00) 17.8 12.78 (12:00) 5 (12:50) 6.2 0 1.2 5 0
27-08-2020 32.5 (17:40) 12.7 (00:00) 22.6 7.78 (13:00) 2.5 (15:50) 0 0 0 0 0
26-08-2020 31.4 (15:40) 12.1 (00:00) 21.8 8.33 (12:20) 2.22 (14:20) 0 0 0 0 0
25-08-2020 32.1 (16:20) 9.2 (00:00) 20.6 6.67 (16:50) 2.5 (13:50) 0 0 0 0 0
24-08-2020 28.2 (16:20) 9.3 (00:00) 18.8 -- (--) -- (--) 0 0 0 0 0
23-08-2020 28.8 (16:20) 8.4 (00:00) 18.6 9.17 (12:10) 2.78 (13:30) 0 0 0 0 0
22-08-2020 30.7 (17:30) 13.5 (00:00) 22.1 8.61 (14:20) 2.5 (14:20) 0 0 0 0 0
21-08-2020 32.1 (17:10) 11.5 (00:00) 21.8 8.61 (18:00) 2.78 (16:40) 0 0 0 0 0
20-08-2020 31.7 (16:50) 12.8 (00:00) 22.3 12.5 (21:50) 5 (17:50) 0 0 0 0 0
19-08-2020 29.1 (17:10) 10.8 (00:00) 20 11.67 (18:30) 3.06 (19:00) 0 0 0 0 0

Gráficas

Temp. máximas Temp. mínimas Temp. medias Precipitaciones Rachas de viento máximas Velocidades máximas media en intervalos de 10 minutos

Datos horarios

Fecha y hora oficial Temperatura (ºC) Velocidad del viento (km/h) Dirección del viento Racha (km/h) Dirección de racha Precipitación (mm) Presión (hPa) Tendencia (hPa) Humedad (%)
2020-09-17 23:00:00 17 3 Noroeste 14 Sudeste 0 905.5 -- 71
2020-09-17 22:00:00 17.5 3 Noroeste 15 Oeste 0 905.5 -- 66
2020-09-17 21:00:00 18.3 0 Calma 15 Nordeste 0 905 -- 68
2020-09-17 20:00:00 19.8 0 Calma 4 Norte 0 905 -- 65
2020-09-17 19:00:00 21.5 0 Calma 10 Nordeste 0 904.8 -- 62
2020-09-17 18:00:00 21.4 2 Sudeste 9 Este 0 905.2 -- 60
2020-09-17 17:00:00 23.7 3 Sudeste 20 Este 0 905.3 -- 46
2020-09-17 16:00:00 23.2 6 Sudeste 22 Sur 0 905.9 -- 44
2020-09-17 15:00:00 23.5 5 Nordeste 34 Este 0 905.6 -- 39
2020-09-17 14:00:00 25.7 9 Sudeste 30 Sur 0 905.4 -- 37
2020-09-17 13:00:00 26.5 5 Sudeste 25 Sudeste 0 905.6 -- 36
2020-09-17 12:00:00 22.5 3 Sudeste 13 Noroeste 0 906.1 -- 49
2020-09-17 11:00:00 18.9 5 Noroeste 12 Noroeste 0 906.7 -- 61
2020-09-17 10:00:00 15.4 5 Noroeste 12 Noroeste 0 907.2 -- 75
2020-09-17 09:00:00 11.9 2 Noroeste 7 Noroeste 0 907.6 -- 90
2020-09-17 08:00:00 10.9 2 Noroeste 8 Oeste 0 907.8 -- 92
2020-09-17 07:00:00 11 0 Calma 9 Noroeste 0 907.8 -- 90
2020-09-17 06:00:00 11.2 0 Calma 9 Noroeste 0 908.1 -- 90
2020-09-17 05:00:00 11.6 3 Noroeste 13 Sudoeste 0 908 -- 89
2020-09-17 04:00:00 11.9 3 Noroeste 10 Noroeste 0 908.5 -- 88
2020-09-17 03:00:00 12.4 2 Norte 6 Norte 0 908.5 -- 86
2020-09-17 02:00:00 13.2 0 Calma 8 Noroeste 0 908.6 -- 83
2020-09-17 01:00:00 14.5 2 Noroeste 10 Noroeste 0 908.7 -- 77
2020-09-17 00:00:00 15.2 2 Noroeste 8 Noroeste 0 908.7 -- 75
2020-09-16 23:00:00 16.4 0 Calma 16 Norte 0 908.5 -- 71
2020-09-16 22:00:00 16.9 0 Calma 14 Sudoeste 0 908.3 -- 69
2020-09-16 21:00:00 19.9 4 Norte 19 Norte 0 907.8 -- 59
2020-09-16 20:00:00 20.9 4 Noroeste 25 Noroeste 0 907.3 -- 54
2020-09-16 19:00:00 22.7 10 Noroeste 31 Noroeste 0 907.1 -- 45
2020-09-16 18:00:00 25.9 4 Sudeste 18 Sudeste 0 906.3 -- 34
2020-09-16 17:00:00 27.5 2 Norte 25 Este 0 906.4 -- 30
2020-09-16 16:00:00 29 5 Sudeste 24 Sur 0 906.5 -- 23
2020-09-16 15:00:00 26.3 4 Sudeste 21 Sur 0 907.1 -- 27
2020-09-16 14:00:00 25.5 5 Sudeste 16 Sur 0 907.7 -- 31
2020-09-16 13:00:00 27.5 6 Sudeste 15 Sudeste 0 908.2 -- 30
2020-09-16 12:00:00 23.3 3 Sudeste 6 Sudeste 0 908.6 -- 48
2020-09-16 11:00:00 18 2 Sudeste 12 Noroeste 0 909.2 -- 68
2020-09-16 10:00:00 14 3 Noroeste 15 Este 0 909.9 -- 81
2020-09-16 09:00:00 11.9 4 Noroeste 18 Noroeste 0 910.3 -- 86
2020-09-16 08:00:00 11 4 Noroeste 13 Oeste 0 910.2 -- 90
2020-09-16 07:00:00 11.6 5 Noroeste 17 Norte 0 910.2 -- 88
2020-09-16 06:00:00 11.1 3 Noroeste 10 Noroeste 0 910.2 -- 91
2020-09-16 05:00:00 11.8 4 Noroeste 16 Noroeste 0 910.5 -- 88
2020-09-16 04:00:00 11.7 3 Noroeste 12 Noroeste 0 910.6 -- 91
2020-09-16 03:00:00 11.9 3 Noroeste 9 Noroeste 0 910.9 -- 89
2020-09-16 02:00:00 13.1 4 Noroeste 17 Norte 0 911.2 -- 85
2020-09-16 01:00:00 12.9 4 Noroeste 13 Norte 0 911.2 -- 87
2020-09-16 00:00:00 14.1 5 Noroeste 19 Norte 0 911.4 -- 83
2020-09-15 23:00:00 14.4 4 Norte 19 Norte 0 911.2 -- 84
2020-09-15 22:00:00 15.5 6 Norte 18 Nordeste 0 910.8 -- 81
2020-09-15 21:00:00 16 6 Norte 19 Norte 0 910.5 -- 83
2020-09-15 20:00:00 17.3 6 Norte 21 Noroeste 0.2 910.2 -- 76
2020-09-15 19:00:00 18.7 9 Norte 35 Noroeste 0 910.4 -- 68
2020-09-15 18:00:00 24.5 5 Sudeste 35 Sur 0 908.9 -- 37
2020-09-15 17:00:00 25.8 8 Sudeste 30 Este 0 908.4 -- 34
2020-09-15 16:00:00 26.7 6 Este 23 Sudeste 0 908.4 -- 33
2020-09-15 15:00:00 28.5 6 Sudeste 19 Sudeste 0 908.9 -- 27
2020-09-15 14:00:00 25.7 4 Sudeste 9 Este 0 909.7 -- 35
2020-09-15 13:00:00 21.5 2 Norte 5 Noroeste 0 910.6 -- 50
2020-09-15 12:00:00 19.3 0 Calma 8 Norte 0 911.1 -- 64
2020-09-15 11:00:00 17.8 2 Noroeste 15 Norte 0 911.4 -- 67
2020-09-15 10:00:00 15.2 7 Norte 17 Norte 0 911.1 -- 70
2020-09-15 09:00:00 13.9 4 Norte 14 Noroeste 0 911 -- 75
2020-09-15 08:00:00 12.5 2 Noroeste 12 Oeste 0 911.3 -- 80
2020-09-15 07:00:00 12.3 3 Noroeste 8 Noroeste 0 911.2 -- 80
2020-09-15 06:00:00 13.3 0 Calma 14 Norte 0 911.3 -- 75
2020-09-15 05:00:00 12.4 0 Calma 10 Noroeste 0 911.7 -- 80
2020-09-15 04:00:00 11.9 2 Oeste 11 Norte 0 912 -- 79
2020-09-15 03:00:00 11.7 0 Calma 7 Noroeste 0 912.4 -- 79
2020-09-15 02:00:00 12.1 2 Norte 5 Norte 0 912.2 -- 77
2020-09-15 01:00:00 12.9 0 Calma 10 Noroeste 0 911.7 -- 74
2020-09-15 00:00:00 13.8 0 Calma 7 Noroeste 0 911.6 -- 71
2020-09-14 23:00:00 14.8 2 Noroeste 6 Norte 0 911.6 -- 67
2020-09-14 22:00:00 16 0 Calma 4 Norte 0 911.3 -- 64
2020-09-14 21:00:00 17.6 2 Noroeste 5 Norte 0 910.8 -- 60
2020-09-14 20:00:00 19.9 0 Calma 9 Norte 0 910.4 -- 52
2020-09-14 19:00:00 23.1 2 Noroeste 15 Oeste 0 910.2 -- 41
2020-09-14 18:00:00 24.9 2 Sudoeste 12 Sur 0 910.2 -- 32
2020-09-14 17:00:00 29 5 Sur 25 Sudeste 0 910.4 -- 22
2020-09-14 16:00:00 29.7 5 Sudeste 31 Sur 0 910.9 -- 22
2020-09-14 15:00:00 29.2 5 Sur 24 Sur 0 911.4 -- 25
2020-09-14 14:00:00 28.4 6 Sudeste 26 Este 0 911.8 -- 22
2020-09-14 13:00:00 27.1 6 Sudeste 19 Sudeste 0 912.1 -- 27
2020-09-14 12:00:00 22.5 5 Sudeste 13 Este 0 912.5 -- 40
2020-09-14 11:00:00 16.3 2 Sudeste 5 Norte 0 913 -- 66
2020-09-14 10:00:00 12.9 3 Norte 7 Noroeste 0 913.4 -- 75
2020-09-14 09:00:00 9.5 0 Calma 10 Noroeste 0 913.7 -- 86
2020-09-14 08:00:00 9 0 Calma 8 Noroeste 0 913.5 -- 88
2020-09-14 07:00:00 9.3 0 Calma 9 Norte 0 913.3 -- 86
2020-09-14 06:00:00 9.5 0 Calma 16 Este 0 913.3 -- 85
2020-09-14 05:00:00 10 3 Noroeste 10 Noroeste 0 913.4 -- 84
2020-09-14 04:00:00 10.3 2 Noroeste 6 Noroeste 0 913.8 -- 84
2020-09-14 03:00:00 10.8 0 Calma 7 Noroeste 0 914.1 -- 82
2020-09-14 02:00:00 11.5 0 Calma 5 Noroeste 0 914.1 -- 79
2020-09-14 01:00:00 12.5 0 Calma 8 Noroeste 0 914.2 -- 76
2020-09-14 00:00:00 13.4 0 Calma 8 Noroeste 0 913.9 -- 72
2020-09-13 23:00:00 14.2 3 Noroeste 6 Norte 0 913.7 -- 69
2020-09-13 22:00:00 15.2 2 Noroeste 6 Norte 0 913.1 -- 65
2020-09-13 21:00:00 16.6 3 Norte 9 Noroeste 0 912.2 -- 61
2020-09-13 20:00:00 18.5 0 Calma 5 Norte 0 911.6 -- 57
2020-09-13 19:00:00 20.9 2 Norte 5 Sur 0 911.1 -- 47
2020-09-13 18:00:00 26.1 2 Sur 11 Este 0 911 -- 30
2020-09-13 17:00:00 29.3 4 Sur 23 Sur 0 911.2 -- 24
2020-09-13 16:00:00 29.6 6 Sudeste 21 Sur 0 911.4 -- 23
2020-09-13 15:00:00 29.7 5 Sudeste 21 Sur 0 911.7 -- 23
2020-09-13 14:00:00 28.7 6 Sudeste 22 Este 0 912.1 -- 25
2020-09-13 13:00:00 26.8 6 Sudeste 24 Sur 0 912.5 -- 29
2020-09-13 12:00:00 22.6 4 Sudeste 17 Este 0 912.7 -- 39
2020-09-13 11:00:00 16.7 2 Sudeste 5 Noroeste 0 913 -- 67
2020-09-13 10:00:00 13.1 2 Este 11 Noroeste 0 913 -- 81
2020-09-13 09:00:00 9.9 0 Calma 8 Noroeste 0 913.1 -- 91
2020-09-13 08:00:00 9.5 2 Noroeste 7 Noroeste 0 912.8 -- 92
2020-09-13 07:00:00 9.7 2 Noroeste 9 Noroeste 0 912.4 -- 91
2020-09-13 06:00:00 10.3 0 Calma 12 Noroeste 0 912.2 -- 88
2020-09-13 05:00:00 10.4 2 Noroeste 9 Noroeste 0 912.3 -- 88
2020-09-13 04:00:00 10.8 0 Calma 6 Norte 0 912.4 -- 87
2020-09-13 03:00:00 11.6 0 Calma 18 Norte 0 912.2 -- 84
2020-09-13 02:00:00 12 2 Noroeste 6 Norte 0 912.1 -- 84
2020-09-13 01:00:00 12.8 0 Calma 8 Noroeste 0 912 -- 81
2020-09-13 00:00:00 13.9 0 Calma 14 Noroeste 0 911.5 -- 77
2020-09-12 23:00:00 14.6 3 Noroeste 12 Noroeste 0 911 -- 76
2020-09-12 22:00:00 15.7 3 Noroeste 6 Noroeste 0 910.1 -- 73
2020-09-12 21:00:00 17.6 0 Calma 5 Sudeste 0 909.1 -- 66
2020-09-12 20:00:00 20 0 Calma 9 Noroeste 0 908.4 -- 57
2020-09-12 19:00:00 22.6 2 Noroeste 9 Sudoeste 0 907.7 -- 45
2020-09-12 18:00:00 27.1 2 Sur 28 Sur 0 907.4 -- 29
2020-09-12 17:00:00 29.1 8 Sudeste 28 Sudeste 0 907.2 -- 23
2020-09-12 16:00:00 28 7 Sudeste 27 Sudeste 0 907.2 -- 24
2020-09-12 15:00:00 29.6 7 Sudeste 21 Sur 0 907.4 -- 21
2020-09-12 14:00:00 28.4 6 Sudeste 21 Sudeste 0 907.7 -- 24
2020-09-12 13:00:00 26.4 6 Sudeste 21 Sur 0 907.9 -- 31
2020-09-12 12:00:00 22.4 5 Sudeste 17 Este 0 908.1 -- 47
2020-09-12 11:00:00 16.7 2 Sudeste 6 Sudeste 0 908.3 -- 65
2020-09-12 10:00:00 12.6 0 Calma 14 Sudeste 0 908.5 -- 90
2020-09-12 09:00:00 10.1 0 Calma 9 Noroeste 0 908.4 -- 93
2020-09-12 08:00:00 10.1 3 Noroeste 13 Nordeste 0 907.9 -- 92
2020-09-12 07:00:00 10 0 Calma 8 Norte 0 907.5 -- 93
2020-09-12 06:00:00 10.2 0 Calma 6 Oeste 0 907.3 -- 92
2020-09-12 05:00:00 10.8 0 Calma 8 Noroeste 0 907.3 -- 90
2020-09-12 04:00:00 11.2 2 Noroeste 14 Nordeste 0 907.1 -- 88
2020-09-12 03:00:00 11.6 2 Noroeste 6 Noroeste 0 907 -- 88
2020-09-12 02:00:00 12.5 2 Noroeste 7 Sudoeste 0 906.9 -- 85
2020-09-12 01:00:00 13.6 0 Calma 12 Oeste 0 906.6 -- 80
2020-09-12 00:00:00 14.3 3 Noroeste 15 Norte 0 906.5 -- 78
2020-09-11 23:00:00 15.2 3 Noroeste 7 Noroeste 0 906.1 -- 75
2020-09-11 22:00:00 17.1 0 Calma 6 Noroeste 0 905.5 -- 68
2020-09-11 21:00:00 19.2 0 Calma 25 Noroeste 0 904.6 -- 60
2020-09-11 20:00:00 21.9 8 Noroeste 31 Noroeste 0 903.9 -- 47
2020-09-11 19:00:00 23.2 10 Noroeste 35 Noroeste 0 903.3 -- 41
2020-09-11 18:00:00 25.7 9 Noroeste 24 Noroeste 0 903 -- 33
2020-09-11 17:00:00 26.7 5 Noroeste 25 Noroeste 0 903 -- 29
2020-09-11 16:00:00 26.7 9 Noroeste 28 Noroeste 0 903.3 -- 28
2020-09-11 15:00:00 27.1 13 Noroeste 36 Noroeste 0 903.6 -- 27
2020-09-11 14:00:00 26.4 14 Noroeste 43 Noroeste 0 903.9 -- 29
2020-09-11 13:00:00 24.7 18 Noroeste 39 Noroeste 0 904.4 -- 31
2020-09-11 12:00:00 24 15 Noroeste 37 Noroeste 0 904.7 -- 32
2020-09-11 11:00:00 20.5 8 Noroeste 19 Noroeste 0 904.8 -- 43
2020-09-11 10:00:00 13.3 2 Sudeste 5 Sur 0 905.1 -- 77
2020-09-11 09:00:00 11.1 0 Calma 20 Noroeste 0 905.6 -- 77
2020-09-11 08:00:00 11.8 5 Norte 17 Oeste 0 905.5 -- 71
2020-09-11 07:00:00 11.3 0 Calma 19 Noroeste 0 905.5 -- 77
2020-09-11 06:00:00 13.4 9 Norte 27 Noroeste 0 905.4 -- 65
2020-09-11 05:00:00 13.5 9 Norte 23 Noroeste 0 905.5 -- 66
2020-09-11 04:00:00 13.1 9 Norte 27 Noroeste 0 905.8 -- 68
2020-09-11 03:00:00 13.5 6 Noroeste 26 Noroeste 0 906.1 -- 68
2020-09-11 02:00:00 13.7 6 Noroeste 27 Norte 0 906.7 -- 68
2020-09-11 01:00:00 15 9 Norte 31 Norte 0 907.2 -- 63
2020-09-11 00:00:00 15.2 8 Norte 23 Norte 0 907.4 -- 63
2020-09-10 23:00:00 14.8 7 Noroeste 18 Noroeste 0 907.3 -- 65
2020-09-10 22:00:00 15.6 7 Noroeste 18 Noroeste 0 907 -- 63
2020-09-10 21:00:00 15.9 5 Noroeste 15 Norte 0 906.5 -- 64
2020-09-10 20:00:00 17.5 6 Noroeste 14 Oeste 0 906.2 -- 59
2020-09-10 19:00:00 19.8 4 Noroeste 27 Noroeste 0 906.4 -- 48
2020-09-10 18:00:00 21.2 11 Noroeste 33 Noroeste 0 906.4 -- 43
2020-09-10 17:00:00 21.5 7 Noroeste 30 Noroeste 0 906.7 -- 41
2020-09-10 16:00:00 23.5 13 Noroeste 37 Noroeste 0 907 -- 35
2020-09-10 15:00:00 21.7 8 Noroeste 23 Noroeste 0 907.5 -- 43
2020-09-10 14:00:00 19.9 9 Noroeste 25 Noroeste 0 907.6 -- 50
2020-09-10 13:00:00 20 9 Noroeste 26 Noroeste 0 907.5 -- 48
2020-09-10 12:00:00 18.7 4 Noroeste 14 Noroeste 0 907.6 -- 60
2020-09-10 11:00:00 16.2 5 Norte 12 Noroeste 0 907.4 -- 79
2020-09-10 10:00:00 14.7 0 Calma 5 Nordeste 0 907.2 -- 89
2020-09-10 09:00:00 13.6 0 Calma 8 Este 0 907.3 -- 91
2020-09-10 08:00:00 13.5 2 Noroeste 11 Este 0 907.3 -- 91
2020-09-10 07:00:00 13.6 2 Oeste 14 Sudeste 0 907.2 -- 92
2020-09-10 06:00:00 13.5 0 Calma 6 Noroeste 0 907.7 -- 94
2020-09-10 05:00:00 13.7 3 Noroeste 13 Norte 0.2 908.1 -- 90
2020-09-10 04:00:00 13.7 0 Calma 9 Noroeste 0 908.1 -- 83
2020-09-10 03:00:00 13.5 2 Sudeste 6 Este 0 908.1 -- 79
2020-09-10 02:00:00 14.1 3 Sudeste 8 Noroeste 0 908.6 -- 76
2020-09-10 01:00:00 15.2 0 Calma 16 Norte 0 909.2 -- 68
2020-09-10 00:00:00 15.6 6 Noroeste 18 Norte 0 909.2 -- 62
2020-09-09 23:00:00 15.9 5 Norte 17 Norte 0 909.4 -- 62
2020-09-09 22:00:00 15.7 5 Noroeste 15 Norte 0 909.4 -- 64
2020-09-09 21:00:00 16.4 5 Noroeste 16 Noroeste 0 908.9 -- 61
2020-09-09 20:00:00 18.2 8 Noroeste 20 Noroeste 0 908.7 -- 52
2020-09-09 19:00:00 17.4 4 Noroeste 33 Noroeste 0 908.7 -- 65
2020-09-09 18:00:00 19.6 9 Noroeste 27 Noroeste 0 908.5 -- 47
2020-09-09 17:00:00 21.2 4 Oeste 27 Noroeste 0 908.6 -- 43
2020-09-09 16:00:00 20.2 9 Noroeste 29 Noroeste 0 908.9 -- 48
2020-09-09 15:00:00 19.3 12 Noroeste 32 Noroeste 0 909.3 -- 55
2020-09-09 14:00:00 19.7 8 Noroeste 41 Noroeste 0 909.4 -- 51
2020-09-09 13:00:00 20.8 15 Noroeste 36 Noroeste 0 909.3 -- 42
2020-09-09 12:00:00 20.6 13 Noroeste 34 Noroeste 0 909.4 -- 42
2020-09-09 11:00:00 17.4 7 Este 15 Este 0 909.7 -- 55
2020-09-09 10:00:00 15.6 6 Norte 19 Norte 0 909.9 -- 62
2020-09-09 09:00:00 12 0 Calma 15 Nordeste 0 910.3 -- 80
2020-09-09 08:00:00 11.5 0 Calma 6 Norte 0 910 -- 77
2020-09-09 07:00:00 11.1 0 Calma 7 Noroeste 0 909.8 -- 76
2020-09-09 06:00:00 10.5 2 Sudoeste 11 Noroeste 0 910 -- 77
2020-09-09 05:00:00 10 4 Noroeste 16 Norte 0 910.8 -- 76
2020-09-09 04:00:00 10 3 Noroeste 10 Oeste 0 911.1 -- 77
2020-09-09 03:00:00 11.1 2 Noroeste 14 Noroeste 0 911.3 -- 73
2020-09-09 02:00:00 12.2 0 Calma 15 Norte 0 911.9 -- 68
2020-09-09 01:00:00 11.5 2 Noroeste 5 Noroeste 0 912.2 -- 71
2020-09-09 00:00:00 13.1 0 Calma 10 Noroeste 0 912.2 -- 65
2020-09-08 23:00:00 14 2 Norte 6 Noroeste 0 912.3 -- 61
2020-09-08 22:00:00 15 2 Noroeste 20 Este 0 911.9 -- 56
2020-09-08 21:00:00 17.4 5 Este 15 Este 0 911.1 -- 44
2020-09-08 20:00:00 20.3 4 Sudeste 25 Sur 0 910.5 -- 36
2020-09-08 19:00:00 22.2 5 Sur 24 Sudeste 0 909.8 -- 28
2020-09-08 18:00:00 24.7 5 Sudeste 23 Sudeste 0 909.4 -- 26
2020-09-08 17:00:00 26.6 8 Sudeste 25 Este 0 909.2 -- 21
2020-09-08 16:00:00 26.7 6 Sudeste 26 Sur 0 909.3 -- 21
2020-09-08 15:00:00 26.1 8 Sudeste 24 Sudeste 0 909.6 -- 19
2020-09-08 14:00:00 25.1 10 Sudeste 23 Sur 0 910.1 -- 20
2020-09-08 13:00:00 23.1 6 Sudeste 16 Sudeste 0 910.8 -- 25
2020-09-08 12:00:00 19.6 4 Sudeste 11 Este 0 911.4 -- 28
2020-09-08 11:00:00 13.8 3 Norte 8 Noroeste 0 911.9 -- 44
2020-09-08 10:00:00 10 4 Noroeste 9 Noroeste 0 912.4 -- 59
2020-09-08 09:00:00 5 0 Calma 8 Oeste 0 912.4 -- 80
2020-09-08 08:00:00 5.2 2 Norte 14 Noroeste 0 912.1 -- 78
2020-09-08 07:00:00 5.6 3 Noroeste 15 Norte 0 911.9 -- 74
2020-09-08 06:00:00 6.4 3 Oeste 15 Norte 0 911.5 -- 70
2020-09-08 05:00:00 7.8 4 Noroeste 18 Norte 0 911.5 -- 63
2020-09-08 04:00:00 9 4 Noroeste 22 Noroeste 0 911.4 -- 58
2020-09-08 03:00:00 10.4 12 Noroeste 33 Noroeste 0 911.3 -- 54
2020-09-08 02:00:00 11 13 Norte 32 Norte 0 911.4 -- 49
2020-09-08 01:00:00 12 14 Noroeste 27 Noroeste 0 911.6 -- 47
2020-09-08 00:00:00 12.1 8 Noroeste 33 Noroeste 0 911.9 -- 46
2020-09-07 23:00:00 13.1 8 Noroeste 29 Noroeste 0 911.9 -- 42
2020-09-07 22:00:00 13.6 9 Noroeste 27 Noroeste 0 911.4 -- 40
2020-09-07 21:00:00 14.1 8 Noroeste 30 Noroeste 0 910.5 -- 41
2020-09-07 20:00:00 15 9 Noroeste 34 Noroeste 0 909.6 -- 37
2020-09-07 19:00:00 16.1 11 Noroeste 39 Noroeste 0 908.8 -- 35
2020-09-07 18:00:00 18.7 11 Noroeste 38 Noroeste 0 908 -- 30
2020-09-07 17:00:00 19.1 18 Noroeste 53 Noroeste 0 908 -- 30
2020-09-07 16:00:00 19.6 14 Noroeste 44 Noroeste 0 908.1 -- 29
2020-09-07 15:00:00 19.2 16 Noroeste 44 Noroeste 0 908.3 -- 29
2020-09-07 14:00:00 18.9 15 Noroeste 49 Noroeste 0 908.4 -- 30
2020-09-07 13:00:00 18 17 Noroeste 47 Noroeste 0 908.4 -- 35
2020-09-07 12:00:00 17.2 17 Noroeste 46 Noroeste 0 908 -- 34
2020-09-07 11:00:00 15.6 14 Noroeste 48 Noroeste 0 907.8 -- 38
2020-09-07 10:00:00 14.7 11 Noroeste 35 Noroeste 0 907.3 -- 41
2020-09-07 09:00:00 13.1 10 Noroeste 28 Noroeste 0 906.9 -- 46
2020-09-07 08:00:00 12.7 8 Noroeste 35 Noroeste 0 907 -- 51
2020-09-07 07:00:00 12.4 13 Noroeste 31 Noroeste 0 906.1 -- 54
2020-09-07 06:00:00 13.2 12 Noroeste 43 Noroeste 0 905.9 -- 56
2020-09-07 05:00:00 13.6 13 Noroeste 32 Noroeste 0 905.4 -- 55
2020-09-07 04:00:00 14.4 13 Noroeste 32 Noroeste 0 905.4 -- 52
2020-09-07 03:00:00 14.9 10 Noroeste 33 Noroeste 0 905.5 -- 52
2020-09-07 02:00:00 15.6 12 Noroeste 39 Noroeste 0 905.7 -- 50
2020-09-07 01:00:00 16.1 12 Noroeste 35 Noroeste 0 905.9 -- 51
2020-09-07 00:00:00 16.1 13 Noroeste 47 Noroeste 0 906 -- 52
2020-09-06 23:00:00 16.5 11 Noroeste 45 Noroeste 0 905.4 -- 51
2020-09-06 22:00:00 17.2 12 Noroeste 38 Noroeste 0 905.1 -- 49
2020-09-06 21:00:00 18 12 Noroeste 42 Noroeste 0 904.2 -- 48
2020-09-06 20:00:00 19.4 14 Noroeste 45 Noroeste 0 903.2 -- 46
2020-09-06 19:00:00 20.1 0 Calma 17 Este 0 902.7 -- 72
2020-09-06 18:00:00 20.6 6 Sudeste 14 Este 0.2 903 -- 75
2020-09-06 17:00:00 22 2 Norte 12 Sur 0 903.3 -- 60
2020-09-06 16:00:00 23 5 Sudeste 22 Sudeste 0 903.8 -- 57
2020-09-06 15:00:00 21.3 7 Sudeste 32 Sur 0 904.5 -- 63
2020-09-06 14:00:00 23.9 8 Sudeste 30 Este 0 904.4 -- 50
2020-09-06 13:00:00 24.8 9 Sudeste 32 Sudeste 0 904.7 -- 50
2020-09-06 12:00:00 22.3 12 Este 29 Este 0 905 -- 57
2020-09-06 11:00:00 17.8 4 Este 12 Este 0 905.8 -- 71
2020-09-06 10:00:00 15.2 3 Norte 8 Noroeste 0 906.2 -- 84
2020-09-06 09:00:00 11.6 2 Noroeste 6 Oeste 0 906.8 -- 96
2020-09-06 08:00:00 11.1 0 Calma 8 Noroeste 0 906.9 -- 95
2020-09-06 07:00:00 11.2 2 Oeste 15 Nordeste 0 906.8 -- 95
2020-09-06 06:00:00 11.4 0 Calma 14 Nordeste 0 907.2 -- 94
2020-09-06 05:00:00 11.9 0 Calma 6 Noroeste 0 907.5 -- 93
2020-09-06 04:00:00 12.5 2 Norte 5 Noroeste 0 907.7 -- 92
2020-09-06 03:00:00 13.1 0 Calma 4 Norte 0 907.9 -- 89
2020-09-06 02:00:00 13.8 0 Calma 4 Norte 0 907.9 -- 87
2020-09-06 01:00:00 14.5 2 Noroeste 5 Norte 0 908.1 -- 84
2020-09-06 00:00:00 15.6 0 Calma 9 Noroeste 0 907.9 -- 80
2020-09-05 23:00:00 17.1 2 Norte 6 Noroeste 0 907.9 -- 73
2020-09-05 22:00:00 19.6 0 Calma 16 Noroeste 0 907.6 -- 64
2020-09-05 21:00:00 22.5 5 Norte 33 Noroeste 0 907.1 -- 52
2020-09-05 20:00:00 23.6 11 Noroeste 31 Norte 0 906.6 -- 48
2020-09-05 19:00:00 25.2 10 Noroeste 28 Noroeste 0 906.4 -- 40
2020-09-05 18:00:00 25.9 8 Noroeste 21 Noroeste 0 906.6 -- 38
2020-09-05 17:00:00 26.6 9 Noroeste 24 Sur 0 906.6 -- 33
2020-09-05 16:00:00 30.6 7 Sudeste 28 Sur 0 907 -- 28
2020-09-05 15:00:00 29.8 9 Sudeste 28 Este 0 907.6 -- 27
2020-09-05 14:00:00 28.3 8 Sudeste 28 Este 0 907.9 -- 30
2020-09-05 13:00:00 26.7 6 Sudeste 27 Sur 0 908.4 -- 34
2020-09-05 12:00:00 23 9 Sudeste 25 Sudeste 0 909 -- 44
2020-09-05 11:00:00 17.2 2 Sudeste 7 Sudeste 0 909.4 -- 59
2020-09-05 10:00:00 13.8 0 Calma 6 Este 0 909.7 -- 81
2020-09-05 09:00:00 9.8 0 Calma 6 Norte 0 909.9 -- 93
2020-09-05 08:00:00 9.5 0 Calma 5 Noroeste 0 910 -- 93
2020-09-05 07:00:00 9.8 0 Calma 6 Norte 0 910 -- 92
2020-09-05 06:00:00 10.2 0 Calma 5 Norte 0 910.3 -- 90
2020-09-05 05:00:00 10.6 0 Calma 13 Oeste 0 910.4 -- 90
2020-09-05 04:00:00 11 0 Calma 7 Oeste 0 910.9 -- 88
2020-09-05 03:00:00 11.4 0 Calma 6 Noroeste 0 911.3 -- 87
2020-09-05 02:00:00 12.1 0 Calma 16 Norte 0 911.5 -- 84
2020-09-05 01:00:00 12.8 2 Norte 8 Noroeste 0 911.5 -- 82
2020-09-05 00:00:00 13.7 0 Calma 9 Noroeste 0 911.8 -- 78
2020-09-04 23:00:00 14.7 0 Calma 8 Norte 0 912 -- 74
2020-09-04 22:00:00 16.2 3 Noroeste 14 Norte 0 911.5 -- 70
2020-09-04 21:00:00 17.5 4 Noroeste 9 Noroeste 0 910.6 -- 64
2020-09-04 20:00:00 19.7 3 Noroeste 9 Este 0 910.1 -- 59
2020-09-04 19:00:00 23.7 3 Sudeste 13 Este 0 910 -- 41
2020-09-04 18:00:00 28.6 4 Sudeste 15 Sudeste 0 910.2 -- 28
2020-09-04 17:00:00 29.5 6 Sudeste 20 Sudeste 0 910.5 -- 26
2020-09-04 16:00:00 29.6 6 Sudeste 27 Sudeste 0 911.1 -- 26
2020-09-04 15:00:00 28.7 8 Sudeste 30 Este 0 911.8 -- 29
2020-09-04 14:00:00 27.4 7 Sudeste 27 Este 0 912.1 -- 31
2020-09-04 13:00:00 25.2 10 Este 32 Este 0 912.8 -- 35
2020-09-04 12:00:00 22.4 5 Sudeste 19 Sudeste 0 913.1 -- 47
2020-09-04 11:00:00 16.9 2 Sudeste 6 Este 0 913.5 -- 63
2020-09-04 10:00:00 13.4 2 Nordeste 5 Noroeste 0 913.6 -- 79
2020-09-04 09:00:00 9.4 2 Norte 4 Norte 0 913.5 -- 95
2020-09-04 08:00:00 9.1 0 Calma 4 Norte 0 912.9 -- 94
2020-09-04 07:00:00 9.4 2 Noroeste 7 Noroeste 0 912.6 -- 93
2020-09-04 06:00:00 9.8 3 Noroeste 14 Nordeste 0 912.4 -- 91
2020-09-04 05:00:00 10.1 0 Calma 8 Noroeste 0 912.7 -- 90
2020-09-04 04:00:00 10.8 0 Calma 14 Norte 0 913.1 -- 86
2020-09-04 03:00:00 10.8 0 Calma 5 Noroeste 0 913.2 -- 88
2020-09-04 02:00:00 11.6 2 Noroeste 9 Norte 0 913.3 -- 84
2020-09-04 01:00:00 12 3 Norte 7 Noroeste 0 913.3 -- 83
2020-09-04 00:00:00 13.1 2 Oeste 8 Noroeste 0 913.2 -- 79
2020-09-03 23:00:00 14.4 0 Calma 9 Noroeste 0 912.9 -- 76
2020-09-03 22:00:00 15.8 0 Calma 10 Noroeste 0 912.3 -- 71
2020-09-03 21:00:00 17.3 2 Noroeste 8 Noroeste 0 910.9 -- 67
2020-09-03 20:00:00 19.6 4 Noroeste 12 Sur 0 909.9 -- 57
2020-09-03 19:00:00 22.7 4 Sur 20 Este 0 909.4 -- 45
2020-09-03 18:00:00 26.9 6 Sudeste 22 Sudeste 0 909.1 -- 31
2020-09-03 17:00:00 27.8 7 Sudeste 24 Sur 0 909.1 -- 29
2020-09-03 16:00:00 27.9 6 Sudeste 30 Sur 0 909.2 -- 30
2020-09-03 15:00:00 27.5 7 Sudeste 31 Sur 0 909.4 -- 32
2020-09-03 14:00:00 26.1 7 Sudeste 33 Este 0 909.5 -- 32
2020-09-03 13:00:00 24.2 6 Sudeste 24 Sur 0 909.5 -- 37
2020-09-03 12:00:00 20.8 6 Sudeste 23 Sur 0 909.9 -- 43
2020-09-03 11:00:00 15.4 2 Sudeste 7 Este 0 910.2 -- 66
2020-09-03 10:00:00 12.5 3 Norte 8 Noroeste 0 910.4 -- 75
2020-09-03 09:00:00 7.8 0 Calma 6 Oeste 0 910.4 -- 94
2020-09-03 08:00:00 7.4 0 Calma 7 Noroeste 0 910 -- 94
2020-09-03 07:00:00 7.6 0 Calma 9 Noroeste 0 909.7 -- 93
2020-09-03 06:00:00 7.8 0 Calma 15 Norte 0 909.5 -- 92
2020-09-03 05:00:00 8.3 0 Calma 13 Norte 0 909.2 -- 91
2020-09-03 04:00:00 8.6 0 Calma 6 Oeste 0 909.3 -- 91
2020-09-03 03:00:00 9.2 0 Calma 7 Oeste 0 909.1 -- 89
2020-09-03 02:00:00 9.9 0 Calma 14 Nordeste 0 908.9 -- 86
2020-09-03 01:00:00 10.5 2 Noroeste 8 Noroeste 0 908.6 -- 86
2020-09-03 00:00:00 11.5 2 Noroeste 7 Noroeste 0 908.3 -- 82
2020-09-02 23:00:00 12.9 3 Noroeste 9 Noroeste 0 908 -- 76
2020-09-02 22:00:00 14.1 0 Calma 4 Norte 0 907.3 -- 72
2020-09-02 21:00:00 16.4 0 Calma 22 Norte 0 906.3 -- 62
2020-09-02 20:00:00 19.4 5 Noroeste 17 Norte 0 905.2 -- 48
2020-09-02 19:00:00 21.2 4 Sudeste 20 Sudeste 0 904.3 -- 48
2020-09-02 18:00:00 25.1 5 Sudeste 23 Este 0 903.7 -- 35
2020-09-02 17:00:00 25.8 6 Sudeste 25 Sur 0 903.5 -- 32
2020-09-02 16:00:00 25.8 7 Sudeste 26 Sur 0 903.6 -- 30
2020-09-02 15:00:00 25.4 7 Sudeste 24 Sudeste 0 903.7 -- 30
2020-09-02 14:00:00 24.3 6 Sudeste 33 Sur 0 903.9 -- 33
2020-09-02 13:00:00 22.6 7 Sudeste 25 Sur 0 904.3 -- 37
2020-09-02 12:00:00 20.6 12 Noroeste 30 Noroeste 0 904.5 -- 34
2020-09-02 11:00:00 17.1 7 Noroeste 13 Noroeste 0 904.5 -- 46
2020-09-02 10:00:00 12.8 0 Calma 5 Sur 0 904.5 -- 77
2020-09-02 09:00:00 8.3 2 Sudeste 9 Oeste 0 904.9 -- 89
2020-09-02 08:00:00 8.1 3 Noroeste 11 Noroeste 0 904.6 -- 88
2020-09-02 07:00:00 8.1 3 Noroeste 13 Noroeste 0 904.3 -- 87
2020-09-02 06:00:00 8.4 3 Noroeste 9 Noroeste 0 904.1 -- 87
2020-09-02 05:00:00 9.1 3 Noroeste 11 Noroeste 0 904 -- 84
2020-09-02 04:00:00 10.3 3 Noroeste 15 Noroeste 0 903.9 -- 78
2020-09-02 03:00:00 11.9 6 Norte 20 Norte 0 903.6 -- 71
2020-09-02 02:00:00 12.6 3 Norte 22 Norte 0 903.8 -- 70
2020-09-02 01:00:00 13.6 7 Noroeste 22 Noroeste 0 903.7 -- 68
2020-09-02 00:00:00 15.2 6 Noroeste 23 Noroeste 0 903.6 -- 62
2020-09-01 23:00:00 16.8 11 Noroeste 28 Noroeste 0 903.5 -- 55
2020-09-01 22:00:00 17.3 10 Noroeste 28 Noroeste 0 903 -- 53
2020-09-01 21:00:00 17.9 8 Noroeste 27 Noroeste 0 902.2 -- 50
2020-09-01 20:00:00 18.8 7 Noroeste 22 Noroeste 0 901.3 -- 47
2020-09-01 19:00:00 19.9 0 Calma 16 Este 0 901 -- 52
2020-09-01 18:00:00 20.6 5 Sudeste 24 Sudeste 0 901.1 -- 37
2020-09-01 17:00:00 21.4 5 Sudeste 23 Este 0 901.1 -- 35
2020-09-01 16:00:00 22.5 7 Sudeste 27 Sudeste 0 900.9 -- 31
2020-09-01 15:00:00 24.3 8 Sudeste 23 Sudeste 0 901.4 -- 28
2020-09-01 14:00:00 22.9 8 Sudeste 27 Sur 0 901.8 -- 25
2020-09-01 13:00:00 21.7 9 Sudeste 30 Este 0 902.5 -- 30
2020-09-01 12:00:00 18.5 4 Sudeste 17 Este 0 903 -- 38
2020-09-01 11:00:00 15.4 0 Calma 6 Sur 0 903.1 -- 60
2020-09-01 10:00:00 13 2 Noroeste 7 Noroeste 0 903.7 -- 63
2020-09-01 09:00:00 9.4 2 Noroeste 12 Norte 0 904 -- 80
2020-09-01 08:00:00 8.1 0 Calma 13 Noroeste 0 904 -- 84
2020-09-01 07:00:00 8.2 0 Calma 6 Oeste 0 903.9 -- 84
2020-09-01 06:00:00 8 0 Calma 7 Oeste 0 904.4 -- 86
2020-09-01 05:00:00 7.9 0 Calma 7 Noroeste 0 905 -- 87
2020-09-01 04:00:00 7.9 2 Noroeste 4 Noroeste 0 905.3 -- 85
2020-09-01 03:00:00 8.7 2 Noroeste 7 Noroeste 0 905.6 -- 82
2020-09-01 02:00:00 10 2 Noroeste 5 Norte 0 905.8 -- 79
2020-09-01 01:00:00 10.1 0 Calma 8 Noroeste 0 905.6 -- 77
2020-09-01 00:00:00 10.5 2 Noroeste 7 Noroeste 0 905.7 -- 76
2020-08-31 23:00:00 11.2 2 Noroeste 11 Noroeste 0 905.5 -- 74
2020-08-31 22:00:00 12.1 0 Calma 10 Noroeste 0 905.4 -- 70
2020-08-31 21:00:00 13.6 3 Noroeste 14 Nordeste 0 904.6 -- 62
2020-08-31 20:00:00 16.1 3 Noroeste 18 Este 0 904.1 -- 56
2020-08-31 19:00:00 19.3 6 Sudeste 18 Sur 0 903.8 -- 40
2020-08-31 18:00:00 22.8 5 Sudeste 24 Sur 0 904 -- 30
2020-08-31 17:00:00 23.6 6 Sudeste 24 Este 0 904.1 -- 33
2020-08-31 16:00:00 23.2 8 Sudeste 30 Sudeste 0 904.8 -- 31
2020-08-31 15:00:00 22.5 9 Sudeste 29 Sur 0 905 -- 31
2020-08-31 14:00:00 21.6 9 Sudeste 28 Este 0 905.3 -- 34
2020-08-31 13:00:00 19.9 8 Sudeste 29 Este 0 905.8 -- 38
2020-08-31 12:00:00 17.2 8 Este 25 Este 0 905.9 -- 41
2020-08-31 11:00:00 12.8 0 Calma 5 Sur 0 905.9 -- 56
2020-08-31 10:00:00 10.1 2 Sudeste 14 Sudeste 0 906.4 -- 68
2020-08-31 09:00:00 5 0 Calma 9 Noroeste 0 906.4 -- 90
2020-08-31 08:00:00 4.7 2 Noroeste 9 Oeste 0 906.4 -- 90
2020-08-31 07:00:00 5 4 Noroeste 13 Norte 0 906.1 -- 90
2020-08-31 06:00:00 5.4 0 Calma 9 Noroeste 0 906.2 -- 89
2020-08-31 05:00:00 6.2 0 Calma 12 Norte 0 906.3 -- 84
2020-08-31 04:00:00 6.9 4 Noroeste 12 Noroeste 0 906.4 -- 81
2020-08-31 03:00:00 7.4 3 Noroeste 9 Noroeste 0 906.4 -- 80
2020-08-31 02:00:00 8.7 0 Calma 15 Noroeste 0 906.5 -- 76
2020-08-31 01:00:00 10.5 6 Noroeste 23 Norte 0 906.3 -- 65
2020-08-31 00:00:00 11 9 Noroeste 25 Noroeste 0 906 -- 62
2020-08-30 23:00:00 11.8 7 Noroeste 22 Noroeste 0 905.8 -- 58
2020-08-30 22:00:00 12.7 8 Norte 27 Norte 0 904.9 -- 54
2020-08-30 21:00:00 13.9 12 Noroeste 31 Noroeste 0 904.1 -- 49
2020-08-30 20:00:00 14.9 13 Noroeste 36 Noroeste 0 903.3 -- 46
2020-08-30 19:00:00 15.6 13 Noroeste 34 Noroeste 0 902.7 -- 46
2020-08-30 18:00:00 16.5 14 Noroeste 40 Noroeste 0 901.9 -- 42
2020-08-30 17:00:00 17.8 15 Noroeste 46 Noroeste 0 901.1 -- 38
2020-08-30 16:00:00 20.1 17 Noroeste 37 Noroeste 0 900.9 -- 35
2020-08-30 15:00:00 19 13 Noroeste 35 Noroeste 0 901.1 -- 32
2020-08-30 14:00:00 19.4 16 Noroeste 36 Noroeste 0 901 -- 34
2020-08-30 13:00:00 19.1 13 Noroeste 31 Norte 0 900.8 -- 33
2020-08-30 12:00:00 17.6 13 Noroeste 31 Noroeste 0 900.7 -- 34
2020-08-30 11:00:00 15 11 Noroeste 23 Noroeste 0 900.4 -- 45
2020-08-30 10:00:00 11.3 2 Oeste 6 Oeste 0 899.8 -- 63
2020-08-30 09:00:00 6.6 0 Calma 11 Noroeste 0 899.7 -- 83
2020-08-30 08:00:00 7 4 Noroeste 14 Noroeste 0 899.5 -- 79
2020-08-30 07:00:00 7.4 3 Noroeste 11 Noroeste 0 899.1 -- 80
2020-08-30 06:00:00 9.1 3 Norte 19 Norte 0 898.7 -- 71
2020-08-30 05:00:00 10.1 8 Norte 25 Noroeste 0 898.3 -- 67
2020-08-30 04:00:00 9.5 6 Noroeste 20 Norte 0 898 -- 71
2020-08-30 03:00:00 10.2 7 Noroeste 18 Noroeste 0 897.7 -- 69
2020-08-30 02:00:00 11.5 8 Norte 23 Norte 0 898 -- 62
2020-08-30 01:00:00 11.4 7 Noroeste 20 Noroeste 0 897.6 -- 66
2020-08-30 00:00:00 11.4 8 Norte 26 Norte 0 897.3 -- 68
2020-08-29 23:00:00 10.9 8 Noroeste 25 Noroeste 0 896.8 -- 73
2020-08-29 22:00:00 11.1 8 Noroeste 21 Norte 0 896.4 -- 78
2020-08-29 21:00:00 11.4 8 Norte 26 Noroeste 0 895.9 -- 76
2020-08-29 20:00:00 12.5 11 Noroeste 30 Noroeste 0.2 895.5 -- 75
2020-08-29 19:00:00 14.6 12 Noroeste 30 Noroeste 0 894.8 -- 57
2020-08-29 18:00:00 16 10 Noroeste 30 Noroeste 0 894.1 -- 58
2020-08-29 17:00:00 13.6 3 Norte 39 Noroeste 0 894.7 -- 69
2020-08-29 16:00:00 15.9 15 Noroeste 48 Norte 0 894.4 -- 49
2020-08-29 15:00:00 16 5 Noroeste 32 Noroeste 0.6 893.4 -- 71
2020-08-29 14:00:00 18.6 3 Sudeste 23 Noroeste 0 892.9 -- 50
2020-08-29 13:00:00 17.7 12 Noroeste 29 Noroeste 0 893.4 -- 43
2020-08-29 12:00:00 18.2 13 Noroeste 39 Noroeste 0 893.6 -- 45
2020-08-29 11:00:00 16.1 10 Noroeste 27 Noroeste 0 893.7 -- 53
2020-08-29 10:00:00 14.8 8 Noroeste 21 Noroeste 0 893.9 -- 59
2020-08-29 09:00:00 12.3 0 Calma 6 Noroeste 0 893.9 -- 92
2020-08-29 08:00:00 12.1 0 Calma 4 Noroeste 0 893.6 -- 93
2020-08-29 07:00:00 12.4 0 Calma 5 Norte 0 893.2 -- 92
2020-08-29 06:00:00 12.7 0 Calma 15 Este 0 893.4 -- 91
2020-08-29 05:00:00 13.2 2 Norte 4 Norte 0 893.7 -- 91
2020-08-29 04:00:00 13.9 0 Calma 3 Este 0 894 -- 88
2020-08-29 03:00:00 14.6 2 Este 19 Noroeste 0 894.5 -- 80
2020-08-29 02:00:00 15.5 5 Noroeste 25 Noroeste 0 894.5 -- 68
2020-08-29 01:00:00 14.7 2 Noroeste 5 Nordeste 0 894.6 -- 92
2020-08-29 00:00:00 15.4 0 Calma 9 Noroeste 0 894.7 -- 89
2020-08-28 23:00:00 16 3 Noroeste 11 Noroeste 0 895.1 -- 91
2020-08-28 22:00:00 16.7 4 Sudeste 13 Sudeste 0 894.8 -- 91
2020-08-28 21:00:00 17.9 3 Sudeste 9 Sur 0 894.5 -- 90
2020-08-28 20:00:00 19.2 0 Calma 9 Sur 0 894.6 -- 90
2020-08-28 19:00:00 19.9 2 Sudeste 15 Sur 0 895 -- 90
2020-08-28 18:00:00 20.3 3 Sur 18 Sudeste 0 895.2 -- 89
2020-08-28 17:00:00 19.8 3 Este 30 Este 0.4 895.9 -- 89
2020-08-28 16:00:00 19.6 6 Sudeste 31 Este 0.2 896.4 -- 87
2020-08-28 15:00:00 19.1 15 Este 37 Este 0.2 897.2 -- 91
2020-08-28 14:00:00 19 5 Sudeste 31 Este 4 897.7 -- 92
2020-08-28 13:00:00 19.6 15 Este 39 Este 0.2 898.2 -- 85
2020-08-28 12:00:00 18.9 17 Este 46 Este 0 898.6 -- 91
2020-08-28 11:00:00 18.5 10 Este 35 Este 1.2 899.1 -- 92
2020-08-28 10:00:00 19.9 9 Sudeste 41 Este 0 898.9 -- 78
2020-08-28 09:00:00 18.7 8 Sudeste 25 Este 0 899.4 -- 81
2020-08-28 08:00:00 15.6 2 Norte 8 Este 0 900 -- 88
2020-08-28 07:00:00 15.3 2 Norte 5 Noroeste 0 900.5 -- 87
2020-08-28 06:00:00 15.9 0 Calma 5 Noroeste 0 901 -- 83
2020-08-28 05:00:00 16.4 0 Calma 5 Norte 0 901.7 -- 80
2020-08-28 04:00:00 16.6 0 Calma 6 Noroeste 0 902.5 -- 78
2020-08-28 03:00:00 15.9 0 Calma 14 Nordeste 0 903.2 -- 78
2020-08-28 02:00:00 15.1 2 Noroeste 5 Nordeste 0 904 -- 80
2020-08-28 01:00:00 15.6 2 Norte 5 Norte 0 904.4 -- 77
2020-08-28 00:00:00 16.4 3 Noroeste 11 Noroeste 0 904.2 -- 74
2020-08-27 23:00:00 16.9 0 Calma 9 Noroeste 0 904.3 -- 74
2020-08-27 22:00:00 18.2 2 Noroeste 6 Norte 0 904.3 -- 72
2020-08-27 21:00:00 20.5 4 Noroeste 11 Noroeste 0 903.9 -- 68
2020-08-27 20:00:00 23 2 Nordeste 8 Norte 0 903.3 -- 59
2020-08-27 19:00:00 25.7 0 Calma 10 Noroeste 0 903.5 -- 49
2020-08-27 18:00:00 31.3 2 Noroeste 16 Este 0 903.8 -- 27
2020-08-27 17:00:00 31.7 6 Sudeste 24 Este 0 904.3 -- 25
2020-08-27 16:00:00 31.1 7 Sudeste 28 Sudeste 0 904.9 -- 29
2020-08-27 15:00:00 29.9 5 Sudeste 22 Este 0 905.6 -- 32
2020-08-27 14:00:00 28.3 5 Sudeste 24 Este 0 906.2 -- 35
2020-08-27 13:00:00 28.7 8 Sudeste 28 Este 0 906.8 -- 35
2020-08-27 12:00:00 25.8 8 Este 24 Este 0 907 -- 47
2020-08-27 11:00:00 21.3 2 Norte 6 Norte 0 907.3 -- 56
2020-08-27 10:00:00 18.3 2 Norte 8 Noroeste 0 907.8 -- 75
2020-08-27 09:00:00 13.4 0 Calma 6 Noroeste 0 908.3 -- 93
2020-08-27 08:00:00 13 0 Calma 8 Noroeste 0 908.4 -- 94
2020-08-27 07:00:00 13 0 Calma 5 Oeste 0 908.3 -- 93
2020-08-27 06:00:00 13.5 4 Noroeste 10 Noroeste 0 908.3 -- 92
2020-08-27 05:00:00 13.6 3 Oeste 7 Oeste 0 908.8 -- 92
2020-08-27 04:00:00 13.8 3 Norte 8 Noroeste 0 909.1 -- 92
2020-08-27 03:00:00 14 0 Calma 5 Norte 0 909.2 -- 90
2020-08-27 02:00:00 14.7 0 Calma 6 Noroeste 0 909.4 -- 88
2020-08-27 01:00:00 15.2 2 Norte 7 Oeste 0 909.4 -- 86
2020-08-27 00:00:00 16.3 0 Calma 12 Norte 0 909.3 -- 83
2020-08-26 23:00:00 17.5 0 Calma 14 Sudoeste 0 909 -- 81
2020-08-26 22:00:00 18.1 2 Noroeste 7 Noroeste 0 908.4 -- 80
2020-08-26 21:00:00 19.7 3 Noroeste 8 Noroeste 0 907.5 -- 75
2020-08-26 20:00:00 22.4 0 Calma 5 Norte 0 907.1 -- 67
2020-08-26 19:00:00 24.8 0 Calma 5 Norte 0 906.9 -- 58
2020-08-26 18:00:00 27.8 0 Calma 14 Este 0 907.1 -- 46
2020-08-26 17:00:00 29.6 5 Sudeste 17 Este 0 907.2 -- 35
2020-08-26 16:00:00 30.3 6 Sudeste 20 Este 0 907.5 -- 32
2020-08-26 15:00:00 30.5 6 Sudeste 24 Sudeste 0 907.9 -- 31
2020-08-26 14:00:00 30.4 8 Sudeste 24 Sudeste 0 908.1 -- 30
2020-08-26 13:00:00 28.7 8 Sudeste 30 Este 0 908.5 -- 40
2020-08-26 12:00:00 26.1 7 Sudeste 24 Sur 0 908.6 -- 47
2020-08-26 11:00:00 20.9 3 Sudeste 11 Este 0 908.7 -- 62
2020-08-26 10:00:00 18.3 0 Calma 14 Sudeste 0 908.8 -- 73
2020-08-26 09:00:00 12.8 0 Calma 6 Noroeste 0 908.8 -- 90
2020-08-26 08:00:00 12.3 0 Calma 9 Oeste 0 908.8 -- 89
2020-08-26 07:00:00 12.2 2 Noroeste 8 Noroeste 0 908.6 -- 87
2020-08-26 06:00:00 12.1 0 Calma 6 Oeste 0 908.8 -- 87
2020-08-26 05:00:00 12.5 0 Calma 16 Noroeste 0 908.9 -- 84
2020-08-26 04:00:00 12.7 0 Calma 5 Noroeste 0 909 -- 83
2020-08-26 03:00:00 13.2 0 Calma 11 Norte 0 908.8 -- 80
2020-08-26 02:00:00 13.5 0 Calma 6 Norte 0 908.8 -- 80
2020-08-26 01:00:00 14.2 0 Calma 8 Noroeste 0 908.6 -- 78
2020-08-26 00:00:00 15.5 0 Calma 14 Sudeste 0 908.1 -- 72
2020-08-25 23:00:00 16.9 4 Noroeste 13 Noroeste 0 907.6 -- 67
2020-08-25 22:00:00 17.7 2 Noroeste 10 Noroeste 0 906.9 -- 68
2020-08-25 21:00:00 19.2 3 Noroeste 7 Noroeste 0 905.8 -- 65
2020-08-25 20:00:00 22.1 2 Noroeste 5 Noroeste 0 905 -- 56
2020-08-25 19:00:00 25.7 2 Oeste 10 Sur 0 904.8 -- 40
2020-08-25 18:00:00 31.4 4 Sur 24 Sudeste 0 904.6 -- 24
2020-08-25 17:00:00 31.6 8 Sudeste 24 Este 0 904.4 -- 21
2020-08-25 16:00:00 31.7 6 Sudeste 22 Sudeste 0 904.5 -- 22
2020-08-25 15:00:00 30.7 6 Sudeste 21 Sur 0 905 -- 24
2020-08-25 14:00:00 29.5 7 Sudeste 24 Sur 0 905.2 -- 26
2020-08-25 13:00:00 27.5 7 Sudeste 24 Este 0 905.5 -- 30
2020-08-25 12:00:00 23.5 5 Sudeste 15 Sur 0 905.6 -- 37
2020-08-25 11:00:00 19 2 Norte 7 Noroeste 0 905.8 -- 47
2020-08-25 10:00:00 15.7 2 Norte 13 Norte 0 906.3 -- 61
2020-08-25 09:00:00 9.7 3 Norte 9 Noroeste 0 906.6 -- 88
2020-08-25 08:00:00 9.2 2 Oeste 9 Oeste 0 906.3 -- 88
2020-08-25 07:00:00 9.5 3 Oeste 13 Norte 0 906 -- 84
2020-08-25 06:00:00 9.6 3 Noroeste 12 Noroeste 0 906.1 -- 86
2020-08-25 05:00:00 9.5 0 Calma 14 Nordeste 0 906.3 -- 87
2020-08-25 04:00:00 10.1 0 Calma 14 Sudoeste 0 906.2 -- 85
2020-08-25 03:00:00 10.6 0 Calma 14 Oeste 0 906.3 -- 83
2020-08-25 02:00:00 11.2 2 Noroeste 6 Noroeste 0 906.4 -- 82
2020-08-25 01:00:00 11.9 2 Noroeste 6 Noroeste 0 906.4 -- 79
2020-08-25 00:00:00 12.9 2 Norte 16 Nordeste 0 906.3 -- 75
2020-08-24 23:00:00 14 2 Noroeste 8 Noroeste 0 906.1 -- 73
2020-08-24 22:00:00 15.5 3 Norte 6 Noroeste 0 905.5 -- 67
2020-08-24 21:00:00 17.4 2 Norte 7 Noroeste 0 904.6 -- 63
2020-08-24 20:00:00 20.2 2 Noroeste 11 Este 0 904 -- 53
2020-08-24 19:00:00 24.3 3 Sur 23 Sudeste 0 904 -- 41
2020-08-24 18:00:00 27.7 5 Sur 26 Sur 0 904.3 -- 28
2020-08-24 17:00:00 28 6 Sudeste -- -- -- 904.4 -- 29
2020-08-24 16:00:00 28 -- -- -- -- -- 904.8 -- 32
2020-08-24 15:00:00 27.6 7 Sudeste -- -- -- 905 -- 29
2020-08-24 14:00:00 26.8 7 Sudeste 28 Sudeste 0 905.3 -- 32
2020-08-24 13:00:00 24.9 10 Sudeste 33 Sur 0 905.7 -- 33
2020-08-24 12:00:00 22 6 Sudeste 21 Este 0 906.2 -- 42
2020-08-24 11:00:00 17.5 4 Este 10 Este 0 906.6 -- 57
2020-08-24 10:00:00 15.4 0 Calma 8 Noroeste 0 907 -- 70
2020-08-24 09:00:00 9.8 3 Noroeste 6 Noroeste 0 907.3 -- 93
2020-08-24 08:00:00 9.4 0 Calma 8 Noroeste 0 906.9 -- 92
2020-08-24 07:00:00 9.5 2 Noroeste 8 Noroeste 0 906.8 -- 91
2020-08-24 06:00:00 9.9 2 Noroeste 5 Norte 0 906.8 -- 90
2020-08-24 05:00:00 10.4 0 Calma 8 Oeste 0 906.7 -- 88
2020-08-24 04:00:00 11.1 2 Norte 8 Noroeste 0 906.9 -- 86
2020-08-24 03:00:00 12 0 Calma 14 Nordeste 0 907 -- 82
2020-08-24 02:00:00 12.3 0 Calma 8 Noroeste 0 907.4 -- 82
2020-08-24 01:00:00 13.3 0 Calma 12 Noroeste 0 907.8 -- 77
2020-08-24 00:00:00 14 2 Noroeste 12 Noroeste 0 907.9 -- 77
2020-08-23 23:00:00 15.1 0 Calma 4 Norte 0 907.9 -- 73
2020-08-23 22:00:00 17 0 Calma 10 Noroeste 0 907.5 -- 67
2020-08-23 21:00:00 20 3 Norte 19 Noroeste 0 906.8 -- 51
2020-08-23 20:00:00 21.5 3 Oeste 12 Norte 0 906.5 -- 49
2020-08-23 19:00:00 24.7 3 Sur 16 Este 0 906.2 -- 40
2020-08-23 18:00:00 28.2 4 Sudoeste 26 Sudeste 0 906.4 -- 23
2020-08-23 17:00:00 28.6 6 Sudeste 23 Sudeste 0 906.8 -- 22
2020-08-23 16:00:00 28.7 7 Sudeste 24 Sur 0 907.2 -- 23
2020-08-23 15:00:00 28.1 8 Sudeste 27 Sudeste 0 907.6 -- 18
2020-08-23 14:00:00 27 8 Sudeste 30 Este 0 908 -- 19
2020-08-23 13:00:00 24.6 8 Sudeste 33 Este 0 908.6 -- 24
2020-08-23 12:00:00 22.1 6 Sudeste 23 Este 0 908.8 -- 28
2020-08-23 11:00:00 16.9 4 Este 13 Este 0 908.9 -- 47
2020-08-23 10:00:00 14.6 2 Norte 7 Sudoeste 0 909.3 -- 50
2020-08-23 09:00:00 8.4 0 Calma 8 Noroeste 0 910 -- 87
2020-08-23 08:00:00 8.5 3 Noroeste 12 Norte 0 909.7 -- 87
2020-08-23 07:00:00 9 0 Calma 13 Noroeste 0 909.4 -- 86
2020-08-23 06:00:00 9.6 2 Noroeste 9 Oeste 0 909.5 -- 85
2020-08-23 05:00:00 10.2 3 Noroeste 12 Norte 0 909.8 -- 84
2020-08-23 04:00:00 11.1 2 Noroeste 11 Noroeste 0 910 -- 81
2020-08-23 03:00:00 12.1 2 Norte 15 Noroeste 0 909.9 -- 77
2020-08-23 02:00:00 13 4 Noroeste 19 Oeste 0 910 -- 71
2020-08-23 01:00:00 12.7 2 Oeste 10 Noroeste 0 910 -- 78
2020-08-23 00:00:00 13.5 0 Calma 14 Oeste 0 909.9 -- 75
2020-08-22 23:00:00 14.8 4 Noroeste 11 Noroeste 0 909.6 -- 67
2020-08-22 22:00:00 15.4 3 Noroeste 9 Noroeste 0 909 -- 65
2020-08-22 21:00:00 17.5 3 Noroeste 7 Noroeste 0 908.3 -- 65
2020-08-22 20:00:00 20.7 2 Este 6 Norte 0 907.6 -- 52
2020-08-22 19:00:00 24.9 2 Oeste 10 Sudeste 0 907.6 -- 39
2020-08-22 18:00:00 29.9 3 Sudoeste 23 Sur 0 907.7 -- 27
2020-08-22 17:00:00 30.3 4 Sudeste 28 Sur 0 907.8 -- 25
2020-08-22 16:00:00 29.2 7 Sudeste 21 Este 0 908.3 -- 27
2020-08-22 15:00:00 28.4 6 Sudeste 31 Este 0 908.6 -- 37
2020-08-22 14:00:00 27.9 8 Sudeste 27 Sur 0 908.6 -- 30
2020-08-22 13:00:00 27.9 5 Sudeste 20 Sudeste 0 908.9 -- 34
2020-08-22 12:00:00 25 8 Sudeste 24 Sudeste 0 909 -- 42
2020-08-22 11:00:00 21.7 5 Sudeste 22 Este 0 909 -- 62
2020-08-22 10:00:00 17.6 3 Sudeste 6 Sudeste 0 909 -- 81
2020-08-22 09:00:00 14.7 0 Calma 12 Noroeste 0 908.7 -- 91
2020-08-22 08:00:00 14.4 0 Calma 8 Noroeste 0 908.3 -- 91
2020-08-22 07:00:00 14.7 2 Norte 4 Este 0 907.8 -- 89
2020-08-22 06:00:00 15.2 2 Norte 15 Oeste 0 907.2 -- 87
2020-08-22 05:00:00 16.4 2 Noroeste 5 Noroeste 0 907 -- 84
2020-08-22 04:00:00 16.8 2 Norte 5 Noroeste 0 906.8 -- 82
2020-08-22 03:00:00 17.1 0 Calma 5 Norte 0 906.8 -- 79
2020-08-22 02:00:00 16.9 3 Norte 6 Noroeste 0 907 -- 78
2020-08-22 01:00:00 16.8 0 Calma 8 Nordeste 0 907 -- 77
2020-08-22 00:00:00 17.4 0 Calma 8 Noroeste 0 906.5 -- 74
2020-08-21 23:00:00 17.3 2 Norte 8 Noroeste 0 906.1 -- 71
2020-08-21 22:00:00 18.2 3 Noroeste 8 Noroeste 0 905.4 -- 68
2020-08-21 21:00:00 19.8 3 Noroeste 8 Norte 0 904.5 -- 64
2020-08-21 20:00:00 22.3 2 Noroeste 10 Sur 0 903.9 -- 53
2020-08-21 19:00:00 26.9 2 Sudoeste 23 Este 0 903.8 -- 38
2020-08-21 18:00:00 31.5 8 Sudeste 31 Sur 0 903.6 -- 24
2020-08-21 17:00:00 31.7 5 Sudeste 27 Sur 0 903.7 -- 23
2020-08-21 16:00:00 31.7 8 Sudeste 27 Sur 0 904 -- 24
2020-08-21 15:00:00 31.1 8 Sudeste 23 Sur 0 904.4 -- 24
2020-08-21 14:00:00 30.2 5 Sudeste 23 Sur 0 904.5 -- 26
2020-08-21 13:00:00 28.5 8 Sudeste 28 Este 0 904.6 -- 32
2020-08-21 12:00:00 24.4 5 Sudeste 22 Sudeste 0 904.6 -- 42
2020-08-21 11:00:00 19.2 0 Calma 16 Nordeste 0 904.9 -- 60
2020-08-21 10:00:00 15.7 2 Norte 6 Noroeste 0 905.1 -- 76
2020-08-21 09:00:00 11.9 0 Calma 6 Oeste 0 905 -- 92
2020-08-21 08:00:00 11.5 0 Calma 5 Norte 0 904.7 -- 91
2020-08-21 07:00:00 11.8 0 Calma 7 Noroeste 0 904.2 -- 89
2020-08-21 06:00:00 12.5 2 Noroeste 8 Noroeste 0 904.1 -- 87
2020-08-21 05:00:00 13.3 0 Calma 14 Nordeste 0 904.1 -- 85
2020-08-21 04:00:00 13.9 3 Noroeste 16 Nordeste 0 903.9 -- 82
2020-08-21 03:00:00 14.6 2 Noroeste 7 Norte 0 904 -- 80
2020-08-21 02:00:00 15.7 3 Norte 12 Oeste 0 903.8 -- 75
2020-08-21 01:00:00 17 2 Noroeste 9 Nordeste 0 903.1 -- 70
2020-08-21 00:00:00 19.5 2 Noroeste 22 Este 0 902.7 -- 56
2020-08-20 23:00:00 22.8 3 Sudeste 39 Sudeste 0 902.1 -- 43
2020-08-20 22:00:00 24.2 10 Este 45 Este 0 901.5 -- 37
2020-08-20 21:00:00 25.7 11 Este 38 Este 0 900.2 -- 37
2020-08-20 20:00:00 27.1 13 Este 40 Este 0 899.6 -- 34
2020-08-20 19:00:00 28.7 11 Este 39 Este 0 899.5 -- 30
2020-08-20 18:00:00 30.4 13 Este 42 Este 0 899.7 -- 22
2020-08-20 17:00:00 31.1 12 Este 44 Sur 0 899.8 -- 23
2020-08-20 16:00:00 30.8 11 Sudeste 33 Este 0 900.2 -- 26
2020-08-20 15:00:00 30 13 Sudeste 42 Sur 0 900.5 -- 30
2020-08-20 14:00:00 29.5 7 Sudeste 24 Este 0 900.8 -- 34
2020-08-20 13:00:00 28.1 7 Sudeste 22 Este 0 901.3 -- 40
2020-08-20 12:00:00 24.7 8 Este 25 Este 0 901.4 -- 50
2020-08-20 11:00:00 20.6 7 Sudeste 17 Sur 0 901.2 -- 68
2020-08-20 10:00:00 17.8 2 Nordeste 6 Noroeste 0 901.3 -- 83
2020-08-20 09:00:00 13.1 2 Noroeste 5 Norte 0 901.4 -- 97
2020-08-20 08:00:00 12.8 0 Calma 5 Norte 0 901.3 -- 97
2020-08-20 07:00:00 13.2 0 Calma 8 Noroeste 0 901.1 -- 96
2020-08-20 06:00:00 13.2 3 Norte 6 Noroeste 0 900.9 -- 97
2020-08-20 05:00:00 13.3 2 Noroeste 10 Noroeste 0 900.8 -- 96
2020-08-20 04:00:00 13.5 2 Noroeste 10 Norte 0 900.6 -- 95
2020-08-20 03:00:00 13.9 2 Norte 9 Sudoeste 0 900.9 -- 94
2020-08-20 02:00:00 14.3 0 Calma 7 Noroeste 0 901 -- 92
2020-08-20 01:00:00 14.9 2 Noroeste 6 Norte 0 900.9 -- 90
2020-08-20 00:00:00 15.9 2 Noroeste 7 Noroeste 0 900.6 -- 85
2020-08-19 23:00:00 16.6 3 Noroeste 10 Noroeste 0 900.1 -- 82
2020-08-19 22:00:00 17.5 4 Noroeste 16 Este 0 899.6 -- 74
2020-08-19 21:00:00 18.7 3 Sudeste 14 Oeste 0 899 -- 69
2020-08-19 20:00:00 20.9 4 Noroeste 17 Sudeste 0 898.8 -- 61
2020-08-19 19:00:00 26.7 11 Este 42 Este 0 899 -- 31
2020-08-19 18:00:00 28.9 6 Sudeste 23 Este 0 899.2 -- 30
2020-08-19 17:00:00 28.8 9 Sudeste 35 Sur 0 899.7 -- 31
2020-08-19 16:00:00 26.8 6 Sudeste 23 Este 0 900.4 -- 44
2020-08-19 15:00:00 25.3 0 Calma 26 Este 0 901 -- 57
2020-08-19 14:00:00 25.4 4 Sudeste 15 Sudeste 0 901.4 -- 50
2020-08-19 13:00:00 25.5 6 Sudeste 24 Sudeste 0 901.8 -- 45
2020-08-19 12:00:00 22.3 8 Este 24 Este 0 902 -- 57
2020-08-19 11:00:00 17.8 3 Sudeste 9 Este 0 902.3 -- 71
2020-08-19 10:00:00 15.6 4 Noroeste 11 Noroeste 0 902.5 -- 87
2020-08-19 09:00:00 11.4 2 Noroeste 13 Norte 0 902.7 -- 97
2020-08-19 08:00:00 11 0 Calma 16 Sudoeste 0 902.8 -- 97
2020-08-19 07:00:00 10.9 0 Calma 6 Oeste 0 902.8 -- 97
2020-08-19 06:00:00 11.2 0 Calma 5 Norte 0 903.3 -- 97
2020-08-19 05:00:00 11.5 0 Calma 6 Noroeste 0 903.4 -- 97
2020-08-19 04:00:00 12.2 2 Noroeste 14 Norte 0 903.8 -- 97
2020-08-19 03:00:00 12.4 0 Calma 10 Noroeste 0 904.1 -- 96
2020-08-19 02:00:00 12.7 2 Norte 15 Sudeste 0 904.3 -- 96
2020-08-19 01:00:00 13.4 4 Norte 13 Noroeste 0 904.4 -- 96
2020-08-19 00:00:00 13.9 2 Sudeste 9 Noroeste 0 904.5 -- 95